sensor_id;sensor_type;location;lat;lon;timestamp;temperature;humidity
4501;DHT22;2263;54.654;9.410;2023-04-26T00:00:43;8.10;75.30
4501;DHT22;2263;54.654;9.410;2023-04-26T00:03:11;8.00;75.20
4501;DHT22;2263;54.654;9.410;2023-04-26T00:05:40;8.00;75.20
4501;DHT22;2263;54.654;9.410;2023-04-26T00:08:07;8.00;75.20
4501;DHT22;2263;54.654;9.410;2023-04-26T00:10:35;8.00;75.20
4501;DHT22;2263;54.654;9.410;2023-04-26T00:13:21;8.00;75.20
4501;DHT22;2263;54.654;9.410;2023-04-26T00:15:49;8.00;75.10
4501;DHT22;2263;54.654;9.410;2023-04-26T00:18:17;8.00;75.30
4501;DHT22;2263;54.654;9.410;2023-04-26T00:20:44;7.90;75.10
4501;DHT22;2263;54.654;9.410;2023-04-26T00:23:12;7.90;75.00
4501;DHT22;2263;54.654;9.410;2023-04-26T00:25:40;7.90;75.20
4501;DHT22;2263;54.654;9.410;2023-04-26T00:28:07;7.90;75.10
4501;DHT22;2263;54.654;9.410;2023-04-26T00:30:35;7.90;75.10
4501;DHT22;2263;54.654;9.410;2023-04-26T00:33:07;7.90;75.20
4501;DHT22;2263;54.654;9.410;2023-04-26T00:35:34;7.80;75.20
4501;DHT22;2263;54.654;9.410;2023-04-26T00:38:04;7.80;75.20
4501;DHT22;2263;54.654;9.410;2023-04-26T00:40:31;7.80;75.20
4501;DHT22;2263;54.654;9.410;2023-04-26T00:43:02;7.80;75.00
4501;DHT22;2263;54.654;9.410;2023-04-26T00:45:30;7.80;75.30
4501;DHT22;2263;54.654;9.410;2023-04-26T00:48:01;7.80;75.30
4501;DHT22;2263;54.654;9.410;2023-04-26T00:50:29;7.70;75.10
4501;DHT22;2263;54.654;9.410;2023-04-26T00:52:58;7.80;75.20
4501;DHT22;2263;54.654;9.410;2023-04-26T00:55:26;7.70;75.10
4501;DHT22;2263;54.654;9.410;2023-04-26T00:57:54;7.70;75.30
4501;DHT22;2263;54.654;9.410;2023-04-26T01:00:21;7.70;75.30
4501;DHT22;2263;54.654;9.410;2023-04-26T01:02:49;7.70;75.50
4501;DHT22;2263;54.654;9.410;2023-04-26T01:05:17;7.70;75.50
4501;DHT22;2263;54.654;9.410;2023-04-26T01:07:46;7.70;75.40
4501;DHT22;2263;54.654;9.410;2023-04-26T01:10:13;7.60;75.70
4501;DHT22;2263;54.654;9.410;2023-04-26T01:12:41;7.70;75.70
4501;DHT22;2263;54.654;9.410;2023-04-26T01:15:09;7.60;75.70
4501;DHT22;2263;54.654;9.410;2023-04-26T01:17:37;7.60;75.80
4501;DHT22;2263;54.654;9.410;2023-04-26T01:20:06;7.60;75.80
4501;DHT22;2263;54.654;9.410;2023-04-26T01:22:36;7.60;76.00
4501;DHT22;2263;54.654;9.410;2023-04-26T01:25:04;7.60;76.00
4501;DHT22;2263;54.654;9.410;2023-04-26T01:27:34;7.60;75.80
4501;DHT22;2263;54.654;9.410;2023-04-26T01:30:02;7.60;76.20
4501;DHT22;2263;54.654;9.410;2023-04-26T01:32:30;7.60;76.00
4501;DHT22;2263;54.654;9.410;2023-04-26T01:34:58;7.60;76.00
4501;DHT22;2263;54.654;9.410;2023-04-26T01:37:27;7.60;76.20
4501;DHT22;2263;54.654;9.410;2023-04-26T01:39:54;7.60;76.10
4501;DHT22;2263;54.654;9.410;2023-04-26T01:42:22;7.60;76.10
4501;DHT22;2263;54.654;9.410;2023-04-26T01:44:50;7.50;76.00
4501;DHT22;2263;54.654;9.410;2023-04-26T01:47:17;7.60;76.10
4501;DHT22;2263;54.654;9.410;2023-04-26T01:49:45;7.50;76.10
4501;DHT22;2263;54.654;9.410;2023-04-26T01:52:15;7.50;76.10
4501;DHT22;2263;54.654;9.410;2023-04-26T01:54:43;7.50;76.20
4501;DHT22;2263;54.654;9.410;2023-04-26T01:57:11;7.50;76.20
4501;DHT22;2263;54.654;9.410;2023-04-26T01:59:38;7.50;76.30
4501;DHT22;2263;54.654;9.410;2023-04-26T02:02:06;7.40;76.20
4501;DHT22;2263;54.654;9.410;2023-04-26T02:04:34;7.40;76.20
4501;DHT22;2263;54.654;9.410;2023-04-26T02:07:01;7.40;76.10
4501;DHT22;2263;54.654;9.410;2023-04-26T02:09:29;7.40;76.20
4501;DHT22;2263;54.654;9.410;2023-04-26T02:11:57;7.40;76.20
4501;DHT22;2263;54.654;9.410;2023-04-26T02:14:24;7.40;76.30
4501;DHT22;2263;54.654;9.410;2023-04-26T02:16:52;7.40;76.30
4501;DHT22;2263;54.654;9.410;2023-04-26T02:19:19;7.40;76.30
4501;DHT22;2263;54.654;9.410;2023-04-26T02:21:55;7.30;76.10
4501;DHT22;2263;54.654;9.410;2023-04-26T02:24:24;7.30;76.00
4501;DHT22;2263;54.654;9.410;2023-04-26T02:26:52;7.30;76.10
4501;DHT22;2263;54.654;9.410;2023-04-26T02:29:21;7.30;76.20
4501;DHT22;2263;54.654;9.410;2023-04-26T02:32:06;7.30;76.20
4501;DHT22;2263;54.654;9.410;2023-04-26T02:34:36;7.30;76.20
4501;DHT22;2263;54.654;9.410;2023-04-26T02:37:04;7.30;76.00
4501;DHT22;2263;54.654;9.410;2023-04-26T02:39:31;7.20;76.00
4501;DHT22;2263;54.654;9.410;2023-04-26T02:41:59;7.20;76.00
4501;DHT22;2263;54.654;9.410;2023-04-26T02:44:30;7.20;76.10
4501;DHT22;2263;54.654;9.410;2023-04-26T02:46:57;7.20;76.10
4501;DHT22;2263;54.654;9.410;2023-04-26T02:49:25;7.20;75.90
4501;DHT22;2263;54.654;9.410;2023-04-26T02:51:52;7.20;76.10
4501;DHT22;2263;54.654;9.410;2023-04-26T02:54:20;7.20;76.00
4501;DHT22;2263;54.654;9.410;2023-04-26T02:56:48;7.10;76.10
4501;DHT22;2263;54.654;9.410;2023-04-26T02:59:15;7.10;75.90
4501;DHT22;2263;54.654;9.410;2023-04-26T03:01:43;7.10;75.90
4501;DHT22;2263;54.654;9.410;2023-04-26T03:04:11;7.10;75.90
4501;DHT22;2263;54.654;9.410;2023-04-26T03:06:39;7.10;76.00
4501;DHT22;2263;54.654;9.410;2023-04-26T03:09:07;7.10;76.00
4501;DHT22;2263;54.654;9.410;2023-04-26T03:11:34;7.10;76.00
4501;DHT22;2263;54.654;9.410;2023-04-26T03:14:02;7.00;75.90
4501;DHT22;2263;54.654;9.410;2023-04-26T03:16:30;7.00;75.80
4501;DHT22;2263;54.654;9.410;2023-04-26T03:18:58;7.00;75.80
4501;DHT22;2263;54.654;9.410;2023-04-26T03:21:25;7.00;76.00
4501;DHT22;2263;54.654;9.410;2023-04-26T03:23:54;7.00;75.90
4501;DHT22;2263;54.654;9.410;2023-04-26T03:26:21;7.00;75.90
4501;DHT22;2263;54.654;9.410;2023-04-26T03:28:49;6.90;75.80
4501;DHT22;2263;54.654;9.410;2023-04-26T03:31:17;6.90;75.80
4501;DHT22;2263;54.654;9.410;2023-04-26T03:33:45;6.90;76.60
4501;DHT22;2263;54.654;9.410;2023-04-26T03:36:13;6.90;75.80
4501;DHT22;2263;54.654;9.410;2023-04-26T03:38:40;6.90;75.80
4501;DHT22;2263;54.654;9.410;2023-04-26T03:41:09;6.90;76.00
4501;DHT22;2263;54.654;9.410;2023-04-26T03:43:36;6.90;75.80
4501;DHT22;2263;54.654;9.410;2023-04-26T03:46:04;6.70;76.00
4501;DHT22;2263;54.654;9.410;2023-04-26T03:48:32;6.50;76.60
4501;DHT22;2263;54.654;9.410;2023-04-26T03:51:00;6.50;76.70
4501;DHT22;2263;54.654;9.410;2023-04-26T03:53:27;6.50;76.70
4501;DHT22;2263;54.654;9.410;2023-04-26T03:55:55;6.60;76.60
4501;DHT22;2263;54.654;9.410;2023-04-26T03:58:24;6.60;76.30
4501;DHT22;2263;54.654;9.410;2023-04-26T04:00:55;6.60;76.30
4501;DHT22;2263;54.654;9.410;2023-04-26T04:03:24;6.60;76.30
4501;DHT22;2263;54.654;9.410;2023-04-26T04:05:52;6.60;76.20
4501;DHT22;2263;54.654;9.410;2023-04-26T04:08:19;6.60;76.10
4501;DHT22;2263;54.654;9.410;2023-04-26T04:10:47;6.60;76.20
4501;DHT22;2263;54.654;9.410;2023-04-26T04:13:15;6.60;76.10
4501;DHT22;2263;54.654;9.410;2023-04-26T04:15:42;6.60;76.00
4501;DHT22;2263;54.654;9.410;2023-04-26T04:18:10;6.60;76.20
4501;DHT22;2263;54.654;9.410;2023-04-26T04:20:39;6.50;76.00
4501;DHT22;2263;54.654;9.410;2023-04-26T04:23:07;6.50;76.00
4501;DHT22;2263;54.654;9.410;2023-04-26T04:25:34;6.50;76.10
4501;DHT22;2263;54.654;9.410;2023-04-26T04:28:02;6.50;76.10
4501;DHT22;2263;54.654;9.410;2023-04-26T04:30:30;6.50;76.10
4501;DHT22;2263;54.654;9.410;2023-04-26T04:32:58;6.50;76.20
4501;DHT22;2263;54.654;9.410;2023-04-26T04:35:26;6.50;76.00
4501;DHT22;2263;54.654;9.410;2023-04-26T04:38:00;6.50;75.90
4501;DHT22;2263;54.654;9.410;2023-04-26T04:40:29;6.50;76.30
4501;DHT22;2263;54.654;9.410;2023-04-26T04:42:57;6.50;76.10
4501;DHT22;2263;54.654;9.410;2023-04-26T04:45:27;6.50;76.30
4501;DHT22;2263;54.654;9.410;2023-04-26T04:47:55;6.50;76.20
4501;DHT22;2263;54.654;9.410;2023-04-26T04:50:22;6.40;76.20
4501;DHT22;2263;54.654;9.410;2023-04-26T04:52:50;6.40;76.30
4501;DHT22;2263;54.654;9.410;2023-04-26T04:55:18;6.40;76.30
4501;DHT22;2263;54.654;9.410;2023-04-26T04:57:45;6.40;76.20
4501;DHT22;2263;54.654;9.410;2023-04-26T05:00:13;6.40;76.40
4501;DHT22;2263;54.654;9.410;2023-04-26T05:02:41;6.40;76.30
4501;DHT22;2263;54.654;9.410;2023-04-26T05:05:09;6.40;76.40
4501;DHT22;2263;54.654;9.410;2023-04-26T05:07:37;6.40;77.00
4501;DHT22;2263;54.654;9.410;2023-04-26T05:10:05;6.40;76.30
4501;DHT22;2263;54.654;9.410;2023-04-26T05:12:33;6.40;76.50
4501;DHT22;2263;54.654;9.410;2023-04-26T05:15:01;6.40;76.50
4501;DHT22;2263;54.654;9.410;2023-04-26T05:17:30;6.40;76.50
4501;DHT22;2263;54.654;9.410;2023-04-26T05:19:58;6.40;76.50
4501;DHT22;2263;54.654;9.410;2023-04-26T05:22:26;6.40;76.50
4501;DHT22;2263;54.654;9.410;2023-04-26T05:24:54;6.40;76.60
4501;DHT22;2263;54.654;9.410;2023-04-26T05:27:22;6.30;76.50
4501;DHT22;2263;54.654;9.410;2023-04-26T05:29:49;6.30;76.50
4501;DHT22;2263;54.654;9.410;2023-04-26T05:32:17;6.30;76.60
4501;DHT22;2263;54.654;9.410;2023-04-26T05:34:44;6.30;76.70
4501;DHT22;2263;54.654;9.410;2023-04-26T05:37:12;6.30;76.60
4501;DHT22;2263;54.654;9.410;2023-04-26T05:39:40;6.30;76.70
4501;DHT22;2263;54.654;9.410;2023-04-26T05:42:07;6.30;76.70
4501;DHT22;2263;54.654;9.410;2023-04-26T05:44:35;6.30;76.80
4501;DHT22;2263;54.654;9.410;2023-04-26T05:47:03;6.30;76.70
4501;DHT22;2263;54.654;9.410;2023-04-26T05:49:31;6.30;76.80
4501;DHT22;2263;54.654;9.410;2023-04-26T05:51:58;6.30;76.70
4501;DHT22;2263;54.654;9.410;2023-04-26T05:54:30;6.30;77.00
4501;DHT22;2263;54.654;9.410;2023-04-26T05:56:57;6.30;77.00
4501;DHT22;2263;54.654;9.410;2023-04-26T05:59:25;6.30;76.90
4501;DHT22;2263;54.654;9.410;2023-04-26T06:01:55;6.40;77.20
4501;DHT22;2263;54.654;9.410;2023-04-26T06:04:23;6.40;77.90
4501;DHT22;2263;54.654;9.410;2023-04-26T06:06:51;6.40;77.40
4501;DHT22;2263;54.654;9.410;2023-04-26T06:09:19;6.40;77.60
4501;DHT22;2263;54.654;9.410;2023-04-26T06:11:46;6.40;77.60
4501;DHT22;2263;54.654;9.410;2023-04-26T06:14:14;6.40;77.70
4501;DHT22;2263;54.654;9.410;2023-04-26T06:16:56;6.40;77.90
4501;DHT22;2263;54.654;9.410;2023-04-26T06:19:24;6.40;77.80
4501;DHT22;2263;54.654;9.410;2023-04-26T06:21:52;6.40;77.80
4501;DHT22;2263;54.654;9.410;2023-04-26T06:24:22;6.40;78.00
4501;DHT22;2263;54.654;9.410;2023-04-26T06:26:53;6.40;77.90
4501;DHT22;2263;54.654;9.410;2023-04-26T06:29:21;6.40;78.00
4501;DHT22;2263;54.654;9.410;2023-04-26T06:31:51;6.50;78.10
4501;DHT22;2263;54.654;9.410;2023-04-26T06:34:19;6.50;78.10
4501;DHT22;2263;54.654;9.410;2023-04-26T06:36:46;6.50;78.20
4501;DHT22;2263;54.654;9.410;2023-04-26T06:39:14;6.50;78.20
4501;DHT22;2263;54.654;9.410;2023-04-26T06:41:43;6.50;78.30
4501;DHT22;2263;54.654;9.410;2023-04-26T06:44:11;6.50;78.30
4501;DHT22;2263;54.654;9.410;2023-04-26T06:46:38;6.50;78.40
4501;DHT22;2263;54.654;9.410;2023-04-26T06:49:06;6.50;78.40
4501;DHT22;2263;54.654;9.410;2023-04-26T06:51:33;6.60;78.50
4501;DHT22;2263;54.654;9.410;2023-04-26T06:54:01;6.60;78.60
4501;DHT22;2263;54.654;9.410;2023-04-26T06:56:28;6.60;78.80
4501;DHT22;2263;54.654;9.410;2023-04-26T06:59:01;6.60;78.70
4501;DHT22;2263;54.654;9.410;2023-04-26T07:01:30;6.70;79.00
4501;DHT22;2263;54.654;9.410;2023-04-26T07:04:03;6.70;78.80
4501;DHT22;2263;54.654;9.410;2023-04-26T07:06:35;6.70;78.80
4501;DHT22;2263;54.654;9.410;2023-04-26T07:09:03;6.70;78.70
4501;DHT22;2263;54.654;9.410;2023-04-26T07:11:31;6.70;78.80
4501;DHT22;2263;54.654;9.410;2023-04-26T07:13:59;6.70;78.80
4501;DHT22;2263;54.654;9.410;2023-04-26T07:16:26;6.70;79.00
4501;DHT22;2263;54.654;9.410;2023-04-26T07:18:54;6.80;79.00
4501;DHT22;2263;54.654;9.410;2023-04-26T07:21:24;6.80;79.00
4501;DHT22;2263;54.654;9.410;2023-04-26T07:23:56;6.90;79.00
4501;DHT22;2263;54.654;9.410;2023-04-26T07:26:25;6.90;79.00
4501;DHT22;2263;54.654;9.410;2023-04-26T07:28:53;6.90;79.10
4501;DHT22;2263;54.654;9.410;2023-04-26T07:31:20;6.90;79.10
4501;DHT22;2263;54.654;9.410;2023-04-26T07:33:48;6.90;78.90
4501;DHT22;2263;54.654;9.410;2023-04-26T07:36:15;7.00;79.10
4501;DHT22;2263;54.654;9.410;2023-04-26T07:38:43;7.00;79.20
4501;DHT22;2263;54.654;9.410;2023-04-26T07:41:11;7.10;79.30
4501;DHT22;2263;54.654;9.410;2023-04-26T07:43:39;7.10;79.30
4501;DHT22;2263;54.654;9.410;2023-04-26T07:46:07;7.20;79.20
4501;DHT22;2263;54.654;9.410;2023-04-26T07:48:35;7.20;79.30
4501;DHT22;2263;54.654;9.410;2023-04-26T07:51:06;7.20;79.40
4501;DHT22;2263;54.654;9.410;2023-04-26T07:53:35;7.20;79.20
4501;DHT22;2263;54.654;9.410;2023-04-26T07:56:04;7.30;79.40
4501;DHT22;2263;54.654;9.410;2023-04-26T07:58:35;7.30;79.30
4501;DHT22;2263;54.654;9.410;2023-04-26T08:01:03;7.30;79.30
4501;DHT22;2263;54.654;9.410;2023-04-26T08:03:32;7.30;79.40
4501;DHT22;2263;54.654;9.410;2023-04-26T08:06:00;7.20;79.30
4501;DHT22;2263;54.654;9.410;2023-04-26T08:08:28;7.30;79.50
4501;DHT22;2263;54.654;9.410;2023-04-26T08:10:56;7.30;79.50
4501;DHT22;2263;54.654;9.410;2023-04-26T08:13:23;7.30;79.30
4501;DHT22;2263;54.654;9.410;2023-04-26T08:15:55;7.30;79.50
4501;DHT22;2263;54.654;9.410;2023-04-26T08:18:22;7.30;79.40
4501;DHT22;2263;54.654;9.410;2023-04-26T08:20:51;7.30;79.50
4501;DHT22;2263;54.654;9.410;2023-04-26T08:23:21;7.30;79.60
4501;DHT22;2263;54.654;9.410;2023-04-26T08:25:49;7.30;79.70
4501;DHT22;2263;54.654;9.410;2023-04-26T08:28:16;7.30;79.60
4501;DHT22;2263;54.654;9.410;2023-04-26T08:30:44;7.40;79.60
4501;DHT22;2263;54.654;9.410;2023-04-26T08:33:12;7.40;79.60
4501;DHT22;2263;54.654;9.410;2023-04-26T08:35:39;7.50;79.60
4501;DHT22;2263;54.654;9.410;2023-04-26T08:38:07;7.50;79.80
4501;DHT22;2263;54.654;9.410;2023-04-26T08:40:35;7.60;79.80
4501;DHT22;2263;54.654;9.410;2023-04-26T08:43:03;7.60;79.70
4501;DHT22;2263;54.654;9.410;2023-04-26T08:45:33;7.60;79.70
4501;DHT22;2263;54.654;9.410;2023-04-26T08:48:11;7.70;79.80
4501;DHT22;2263;54.654;9.410;2023-04-26T08:50:43;7.70;80.10
4501;DHT22;2263;54.654;9.410;2023-04-26T08:53:14;7.70;79.90
4501;DHT22;2263;54.654;9.410;2023-04-26T08:55:48;7.70;79.80
4501;DHT22;2263;54.654;9.410;2023-04-26T08:58:17;7.70;79.70
4501;DHT22;2263;54.654;9.410;2023-04-26T09:00:45;7.70;79.80
4501;DHT22;2263;54.654;9.410;2023-04-26T09:03:13;7.70;80.00
4501;DHT22;2263;54.654;9.410;2023-04-26T09:05:41;7.70;79.90
4501;DHT22;2263;54.654;9.410;2023-04-26T09:08:15;7.70;80.10
4501;DHT22;2263;54.654;9.410;2023-04-26T09:10:44;7.70;80.10
4501;DHT22;2263;54.654;9.410;2023-04-26T09:13:12;7.70;80.60
4501;DHT22;2263;54.654;9.410;2023-04-26T09:15:40;7.70;80.10
4501;DHT22;2263;54.654;9.410;2023-04-26T09:18:22;7.70;80.30
4501;DHT22;2263;54.654;9.410;2023-04-26T09:21:03;7.80;80.30
4501;DHT22;2263;54.654;9.410;2023-04-26T09:23:32;7.80;80.30
4501;DHT22;2263;54.654;9.410;2023-04-26T09:26:18;7.80;80.30
4501;DHT22;2263;54.654;9.410;2023-04-26T09:28:47;7.70;80.40
4501;DHT22;2263;54.654;9.410;2023-04-26T09:31:37;7.70;80.40
4501;DHT22;2263;54.654;9.410;2023-04-26T09:34:06;7.70;80.60
4501;DHT22;2263;54.654;9.410;2023-04-26T09:36:54;7.70;80.70
4501;DHT22;2263;54.654;9.410;2023-04-26T09:39:36;7.70;80.80
4501;DHT22;2263;54.654;9.410;2023-04-26T09:42:05;7.80;81.00
4501;DHT22;2263;54.654;9.410;2023-04-26T09:44:33;7.80;81.10
4501;DHT22;2263;54.654;9.410;2023-04-26T09:47:04;7.90;81.30
4501;DHT22;2263;54.654;9.410;2023-04-26T09:49:54;8.00;81.60
4501;DHT22;2263;54.654;9.410;2023-04-26T09:52:20;8.10;81.80
4501;DHT22;2263;54.654;9.410;2023-04-26T09:54:52;8.10;81.50
4501;DHT22;2263;54.654;9.410;2023-04-26T09:57:21;8.20;81.60
4501;DHT22;2263;54.654;9.410;2023-04-26T09:59:51;8.20;81.00
4501;DHT22;2263;54.654;9.410;2023-04-26T10:02:26;8.20;80.90
4501;DHT22;2263;54.654;9.410;2023-04-26T10:04:55;8.20;80.70
4501;DHT22;2263;54.654;9.410;2023-04-26T10:07:24;8.20;80.70
4501;DHT22;2263;54.654;9.410;2023-04-26T10:09:52;8.20;80.60
4501;DHT22;2263;54.654;9.410;2023-04-26T10:12:21;8.30;80.80
4501;DHT22;2263;54.654;9.410;2023-04-26T10:14:49;8.30;80.90
4501;DHT22;2263;54.654;9.410;2023-04-26T10:17:18;8.40;81.00
4501;DHT22;2263;54.654;9.410;2023-04-26T10:19:51;8.50;80.90
4501;DHT22;2263;54.654;9.410;2023-04-26T10:22:27;8.50;80.80
4501;DHT22;2263;54.654;9.410;2023-04-26T10:24:55;8.50;81.00
4501;DHT22;2263;54.654;9.410;2023-04-26T10:27:46;8.60;80.90
4501;DHT22;2263;54.654;9.410;2023-04-26T10:30:15;8.60;80.90
4501;DHT22;2263;54.654;9.410;2023-04-26T10:35:27;8.70;80.80
4501;DHT22;2263;54.654;9.410;2023-04-26T10:40:33;8.80;81.00
4501;DHT22;2263;54.654;9.410;2023-04-26T10:45:41;8.90;81.10
4501;DHT22;2263;54.654;9.410;2023-04-26T10:48:18;8.90;81.10
4501;DHT22;2263;54.654;9.410;2023-04-26T10:53:33;9.00;81.70
4501;DHT22;2263;54.654;9.410;2023-04-26T10:56:00;9.00;80.80
4501;DHT22;2263;54.654;9.410;2023-04-26T10:58:31;9.00;80.70
4501;DHT22;2263;54.654;9.410;2023-04-26T11:03:34;9.10;80.90
4501;DHT22;2263;54.654;9.410;2023-04-26T11:06:07;9.10;80.70
4501;DHT22;2263;54.654;9.410;2023-04-26T11:08:36;9.10;80.40
4501;DHT22;2263;54.654;9.410;2023-04-26T11:11:10;9.10;80.40
4501;DHT22;2263;54.654;9.410;2023-04-26T11:13:42;9.10;80.20
4501;DHT22;2263;54.654;9.410;2023-04-26T11:16:14;9.00;80.30
4501;DHT22;2263;54.654;9.410;2023-04-26T11:18:46;9.00;80.30
4501;DHT22;2263;54.654;9.410;2023-04-26T11:21:14;9.00;80.30
4501;DHT22;2263;54.654;9.410;2023-04-26T11:24:02;9.00;80.10
4501;DHT22;2263;54.654;9.410;2023-04-26T11:26:33;9.00;80.10
4501;DHT22;2263;54.654;9.410;2023-04-26T11:29:01;9.00;80.00
4501;DHT22;2263;54.654;9.410;2023-04-26T11:31:29;8.90;79.80
4501;DHT22;2263;54.654;9.410;2023-04-26T11:34:03;8.90;79.90
4501;DHT22;2263;54.654;9.410;2023-04-26T11:36:31;8.90;80.00
4501;DHT22;2263;54.654;9.410;2023-04-26T11:38:59;8.90;80.10
4501;DHT22;2263;54.654;9.410;2023-04-26T11:41:28;8.90;80.10
4501;DHT22;2263;54.654;9.410;2023-04-26T11:43:58;8.90;80.10
4501;DHT22;2263;54.654;9.410;2023-04-26T11:46:26;8.90;80.10
4501;DHT22;2263;54.654;9.410;2023-04-26T11:48:54;9.00;80.20
4501;DHT22;2263;54.654;9.410;2023-04-26T11:51:22;9.00;80.10
4501;DHT22;2263;54.654;9.410;2023-04-26T11:53:50;9.10;80.10
4501;DHT22;2263;54.654;9.410;2023-04-26T11:56:19;9.20;80.10
4501;DHT22;2263;54.654;9.410;2023-04-26T11:58:52;9.30;80.30
4501;DHT22;2263;54.654;9.410;2023-04-26T12:01:24;9.30;80.10
4501;DHT22;2263;54.654;9.410;2023-04-26T12:03:53;9.30;79.90
4501;DHT22;2263;54.654;9.410;2023-04-26T12:06:39;9.30;80.10
4501;DHT22;2263;54.654;9.410;2023-04-26T12:09:08;9.40;80.00
4501;DHT22;2263;54.654;9.410;2023-04-26T12:11:36;9.40;79.90
4501;DHT22;2263;54.654;9.410;2023-04-26T12:14:03;9.50;80.10
4501;DHT22;2263;54.654;9.410;2023-04-26T12:16:35;9.50;79.60
4501;DHT22;2263;54.654;9.410;2023-04-26T12:19:06;9.50;79.60
4501;DHT22;2263;54.654;9.410;2023-04-26T12:21:42;9.40;79.40
4501;DHT22;2263;54.654;9.410;2023-04-26T12:24:27;9.40;79.30
4501;DHT22;2263;54.654;9.410;2023-04-26T12:27:01;9.40;80.20
4501;DHT22;2263;54.654;9.410;2023-04-26T12:29:30;9.30;79.80
4501;DHT22;2263;54.654;9.410;2023-04-26T12:31:58;9.30;79.80
4501;DHT22;2263;54.654;9.410;2023-04-26T12:34:26;9.20;80.00
4501;DHT22;2263;54.654;9.410;2023-04-26T12:36:54;9.20;80.10
4501;DHT22;2263;54.654;9.410;2023-04-26T12:39:22;9.20;80.10
4501;DHT22;2263;54.654;9.410;2023-04-26T12:41:55;9.20;80.30
4501;DHT22;2263;54.654;9.410;2023-04-26T12:44:23;9.30;80.60
4501;DHT22;2263;54.654;9.410;2023-04-26T12:46:50;9.30;81.00
4501;DHT22;2263;54.654;9.410;2023-04-26T12:49:18;9.30;80.80
4501;DHT22;2263;54.654;9.410;2023-04-26T12:51:46;9.40;80.60
4501;DHT22;2263;54.654;9.410;2023-04-26T12:54:13;9.40;80.40
4501;DHT22;2263;54.654;9.410;2023-04-26T12:56:41;9.40;80.50
4501;DHT22;2263;54.654;9.410;2023-04-26T12:59:10;9.50;80.40
4501;DHT22;2263;54.654;9.410;2023-04-26T13:01:38;9.50;80.40
4501;DHT22;2263;54.654;9.410;2023-04-26T13:04:05;9.60;80.30
4501;DHT22;2263;54.654;9.410;2023-04-26T13:06:34;9.60;80.20
4501;DHT22;2263;54.654;9.410;2023-04-26T13:09:02;9.50;80.00
4501;DHT22;2263;54.654;9.410;2023-04-26T13:11:29;9.50;80.10
4501;DHT22;2263;54.654;9.410;2023-04-26T13:13:57;9.50;80.00
4501;DHT22;2263;54.654;9.410;2023-04-26T13:16:25;9.50;80.00
4501;DHT22;2263;54.654;9.410;2023-04-26T13:18:52;9.60;79.90
4501;DHT22;2263;54.654;9.410;2023-04-26T13:21:21;9.60;80.70
4501;DHT22;2263;54.654;9.410;2023-04-26T13:23:49;9.60;80.00
4501;DHT22;2263;54.654;9.410;2023-04-26T13:26:17;9.60;79.90
4501;DHT22;2263;54.654;9.410;2023-04-26T13:28:44;9.60;79.80
4501;DHT22;2263;54.654;9.410;2023-04-26T13:31:13;9.60;79.60
4501;DHT22;2263;54.654;9.410;2023-04-26T13:33:44;9.50;79.60
4501;DHT22;2263;54.654;9.410;2023-04-26T13:36:13;9.50;79.30
4501;DHT22;2263;54.654;9.410;2023-04-26T13:38:43;9.50;79.30
4501;DHT22;2263;54.654;9.410;2023-04-26T13:41:10;9.60;79.50
4501;DHT22;2263;54.654;9.410;2023-04-26T13:43:38;9.60;79.50
4501;DHT22;2263;54.654;9.410;2023-04-26T13:46:05;9.70;79.40
4501;DHT22;2263;54.654;9.410;2023-04-26T13:48:34;9.70;79.50
4501;DHT22;2263;54.654;9.410;2023-04-26T13:51:01;9.80;79.30
4501;DHT22;2263;54.654;9.410;2023-04-26T13:53:32;9.80;79.20
4501;DHT22;2263;54.654;9.410;2023-04-26T13:56:00;9.80;79.30
4501;DHT22;2263;54.654;9.410;2023-04-26T13:58:28;9.90;79.10
4501;DHT22;2263;54.654;9.410;2023-04-26T14:00:55;9.90;79.20
4501;DHT22;2263;54.654;9.410;2023-04-26T14:03:23;9.90;79.20
4501;DHT22;2263;54.654;9.410;2023-04-26T14:05:51;9.90;79.10
4501;DHT22;2263;54.654;9.410;2023-04-26T14:08:18;9.90;79.10
4501;DHT22;2263;54.654;9.410;2023-04-26T14:10:46;10.00;77.50
4501;DHT22;2263;54.654;9.410;2023-04-26T14:13:14;10.00;77.40
4501;DHT22;2263;54.654;9.410;2023-04-26T14:15:42;10.00;77.50
4501;DHT22;2263;54.654;9.410;2023-04-26T14:18:09;10.00;77.60
4501;DHT22;2263;54.654;9.410;2023-04-26T14:20:37;10.00;77.30
4501;DHT22;2263;54.654;9.410;2023-04-26T14:23:05;10.00;77.50
4501;DHT22;2263;54.654;9.410;2023-04-26T14:25:32;10.00;77.50
4501;DHT22;2263;54.654;9.410;2023-04-26T14:28:00;10.10;77.60
4501;DHT22;2263;54.654;9.410;2023-04-26T14:30:28;10.10;77.40
4501;DHT22;2263;54.654;9.410;2023-04-26T14:32:56;10.10;77.10
4501;DHT22;2263;54.654;9.410;2023-04-26T14:35:23;10.10;76.80
4501;DHT22;2263;54.654;9.410;2023-04-26T14:37:51;10.20;77.00
4501;DHT22;2263;54.654;9.410;2023-04-26T14:40:19;10.20;77.10
4501;DHT22;2263;54.654;9.410;2023-04-26T14:42:47;10.20;76.80
4501;DHT22;2263;54.654;9.410;2023-04-26T14:45:15;10.20;76.40
4501;DHT22;2263;54.654;9.410;2023-04-26T14:47:42;10.20;76.20
4501;DHT22;2263;54.654;9.410;2023-04-26T14:50:10;10.20;76.30
4501;DHT22;2263;54.654;9.410;2023-04-26T14:52:40;10.20;76.00
4501;DHT22;2263;54.654;9.410;2023-04-26T14:55:10;10.20;76.00
4501;DHT22;2263;54.654;9.410;2023-04-26T14:57:43;10.20;76.00
4501;DHT22;2263;54.654;9.410;2023-04-26T15:00:11;10.20;76.10
4501;DHT22;2263;54.654;9.410;2023-04-26T15:02:42;10.20;76.30
4501;DHT22;2263;54.654;9.410;2023-04-26T15:05:11;10.20;76.30
4501;DHT22;2263;54.654;9.410;2023-04-26T15:07:39;10.20;76.40
4501;DHT22;2263;54.654;9.410;2023-04-26T15:10:07;10.20;76.60
4501;DHT22;2263;54.654;9.410;2023-04-26T15:12:35;10.20;75.50
4501;DHT22;2263;54.654;9.410;2023-04-26T15:15:06;10.20;75.60
4501;DHT22;2263;54.654;9.410;2023-04-26T15:17:34;10.20;76.10
4501;DHT22;2263;54.654;9.410;2023-04-26T15:20:02;10.20;76.10
4501;DHT22;2263;54.654;9.410;2023-04-26T15:22:32;10.20;75.90
4501;DHT22;2263;54.654;9.410;2023-04-26T15:25:04;10.10;75.80
4501;DHT22;2263;54.654;9.410;2023-04-26T15:27:35;10.10;76.30
4501;DHT22;2263;54.654;9.410;2023-04-26T15:30:04;10.10;76.40
4501;DHT22;2263;54.654;9.410;2023-04-26T15:32:32;10.10;76.50
4501;DHT22;2263;54.654;9.410;2023-04-26T15:35:00;10.10;76.80
4501;DHT22;2263;54.654;9.410;2023-04-26T15:37:28;10.00;76.70
4501;DHT22;2263;54.654;9.410;2023-04-26T15:39:55;10.00;77.30
4501;DHT22;2263;54.654;9.410;2023-04-26T15:42:23;10.10;77.10
4501;DHT22;2263;54.654;9.410;2023-04-26T15:44:51;10.10;77.30
4501;DHT22;2263;54.654;9.410;2023-04-26T15:47:18;10.00;77.30
4501;DHT22;2263;54.654;9.410;2023-04-26T15:49:46;10.00;77.20
4501;DHT22;2263;54.654;9.410;2023-04-26T15:52:13;10.00;77.10
4501;DHT22;2263;54.654;9.410;2023-04-26T15:54:43;10.00;77.00
4501;DHT22;2263;54.654;9.410;2023-04-26T15:57:10;10.10;77.00
4501;DHT22;2263;54.654;9.410;2023-04-26T15:59:38;10.10;77.20
4501;DHT22;2263;54.654;9.410;2023-04-26T16:02:06;10.00;77.10
4501;DHT22;2263;54.654;9.410;2023-04-26T16:04:34;10.00;77.20
4501;DHT22;2263;54.654;9.410;2023-04-26T16:07:02;10.00;77.00
4501;DHT22;2263;54.654;9.410;2023-04-26T16:09:30;10.00;77.00
4501;DHT22;2263;54.654;9.410;2023-04-26T16:11:58;10.00;77.10
4501;DHT22;2263;54.654;9.410;2023-04-26T16:14:26;10.00;77.10
4501;DHT22;2263;54.654;9.410;2023-04-26T16:16:53;10.00;76.90
4501;DHT22;2263;54.654;9.410;2023-04-26T16:19:21;10.00;76.90
4501;DHT22;2263;54.654;9.410;2023-04-26T16:21:49;10.00;76.70
4501;DHT22;2263;54.654;9.410;2023-04-26T16:24:18;10.00;76.80
4501;DHT22;2263;54.654;9.410;2023-04-26T16:26:46;10.00;77.10
4501;DHT22;2263;54.654;9.410;2023-04-26T16:29:14;10.00;77.00
4501;DHT22;2263;54.654;9.410;2023-04-26T16:31:41;10.00;76.90
4501;DHT22;2263;54.654;9.410;2023-04-26T16:34:10;10.00;76.90
4501;DHT22;2263;54.654;9.410;2023-04-26T16:36:38;10.00;76.90
4501;DHT22;2263;54.654;9.410;2023-04-26T16:39:05;9.90;77.60